Time;durP1;ratioP1;P1;durP2;ratioP2;P2;SDS_P1;SDS_P2;PMS_P1;PMS_P2;Temp;Humidity;BMP_temperature;BMP_pressure;BME280_temperature;BME280_humidity;BME280_pressure;Samples;Min_cycle;Max_cycle;Signal;HPM_P1;HPM_P2
2023/06/12 00:00:47;;;;;;;5.28;2.33;;;;;;;10.66;50.82;100556.50;5012507;28;20051;-35
2023/06/12 00:03:13;;;;;;;7.05;3.63;;;;;;;10.62;50.48;100559.13;5012184;28;20460;-35
2023/06/12 00:05:43;;;;;;;5.05;2.20;;;;;;;10.60;50.33;100552.28;5028173;28;20115;-36
2023/06/12 00:08:11;;;;;;;7.65;2.75;;;;;;;10.57;51.19;100549.75;5030273;28;20037;-36
2023/06/12 00:10:39;;;;;;;6.90;2.15;;;;;;;10.57;51.02;100553.19;5029036;28;20052;-36
2023/06/12 00:13:06;;;;;;;6.18;1.83;;;;;;;10.55;50.94;100551.50;5029628;28;20041;-35
2023/06/12 00:15:31;;;;;;;6.80;2.20;;;;;;;10.56;50.91;100558.44;5030027;28;20041;-36
2023/06/12 00:17:57;;;;;;;9.30;2.80;;;;;;;10.39;50.76;100534.50;5028600;28;20052;-36
2023/06/12 00:20:23;;;;;;;5.72;2.05;;;;;;;10.53;50.98;100564.53;5029480;28;20091;-36
2023/06/12 00:22:50;;;;;;;5.20;1.98;;;;;;;10.36;50.59;100543.25;5028325;28;20425;-36
2023/06/12 00:25:16;;;;;;;4.97;1.90;;;;;;;10.50;51.05;100562.00;5012074;28;20507;-36
2023/06/12 00:27:42;;;;;;;2.60;1.70;;;;;;;10.46;50.96;100560.38;5029223;28;20136;-35
2023/06/12 00:30:08;;;;;;;7.53;1.65;;;;;;;10.48;50.84;100568.97;5029927;28;20421;-35
2023/06/12 00:32:34;;;;;;;4.40;1.48;;;;;;;10.48;51.16;100573.31;5028547;28;20041;-36
2023/06/12 00:35:00;;;;;;;3.65;1.70;;;;;;;10.46;51.08;100565.56;5028192;28;20057;-36
2023/06/12 00:37:27;;;;;;;3.65;1.70;;;;;;;10.44;50.97;100571.66;5027492;28;20042;-35
2023/06/12 00:39:53;;;;;;;5.07;1.73;;;;;;;10.40;50.93;100565.69;5027868;28;20044;-36
2023/06/12 00:42:20;;;;;;;4.15;1.65;;;;;;;10.28;51.03;100555.50;5026420;28;20456;-36
2023/06/12 00:44:46;;;;;;;6.05;1.75;;;;;;;10.39;51.41;100583.91;5027932;28;20075;-36
2023/06/12 00:47:14;;;;;;;5.80;1.50;;;;;;;10.39;51.33;100579.56;5029549;28;20140;-35
2023/06/12 00:49:41;;;;;;;4.88;1.58;;;;;;;10.40;51.61;100578.69;5011371;28;20489;-35
2023/06/12 00:52:11;;;;;;;14.40;2.05;;;;;;;10.39;51.76;100578.69;5028085;28;20063;-36
2023/06/12 00:54:39;;;;;;;4.80;1.73;;;;;;;10.38;51.57;100584.78;5043976;28;20041;-36
2023/06/12 00:57:07;;;;;;;3.10;1.38;;;;;;;10.24;51.66;100558.19;5027591;28;20199;-36
2023/06/12 00:59:33;;;;;;;3.10;1.60;;;;;;;10.36;51.58;100584.81;5028063;28;20053;-35
2023/06/12 01:02:01;;;;;;;6.45;1.67;;;;;;;10.36;51.50;100590.03;5027210;28;20098;-35
2023/06/12 01:04:28;;;;;;;5.43;1.52;;;;;;;10.36;51.82;100586.56;5027153;28;20729;-35
2023/06/12 01:07:20;;;;;;;3.67;1.55;;;;;;;10.34;52.06;100589.19;5027832;28;20048;-36
2023/06/12 01:10:03;;;;;;;3.78;1.35;;;;;;;10.32;51.69;100593.53;5011354;28;20132;-34
2023/06/12 01:12:29;;;;;;;1.95;1.35;;;;;;;10.30;52.28;100597.94;5027210;28;20433;-36
2023/06/12 01:14:55;;;;;;;5.38;1.77;;;;;;;10.29;52.20;100593.63;5027633;28;20041;-35
2023/06/12 01:17:21;;;;;;;5.22;1.77;;;;;;;10.30;52.34;100592.75;5027678;28;20398;-36
2023/06/12 01:19:48;;;;;;;5.68;1.83;;;;;;;10.29;52.33;100600.56;5027648;28;20049;-35
2023/06/12 01:22:18;;;;;;;4.72;1.65;;;;;;;10.28;52.33;100610.09;5027633;28;20524;-36
2023/06/12 01:24:58;;;;;;;3.30;2.10;;;;;;;10.31;52.42;100612.63;5026896;28;20033;-36
2023/06/12 01:27:43;;;;;;;5.25;1.92;;;;;;;10.30;52.81;100605.72;5009330;28;20061;-35
2023/06/12 01:30:43;;;;;;;3.20;1.98;;;;;;;10.28;52.50;100620.47;5007094;28;20046;-35
2023/06/12 01:33:14;;;;;;;5.70;1.98;;;;;;;10.14;53.14;100586.06;4988650;28;20046;-36
2023/06/12 01:35:43;;;;;;;5.45;2.10;;;;;;;10.27;52.58;100610.97;4999335;28;20073;-36
2023/06/12 01:38:17;;;;;;;6.57;2.20;;;;;;;10.28;53.12;100617.03;5041524;28;20415;-36
2023/06/12 01:40:45;;;;;;;6.40;2.25;;;;;;;10.27;52.88;100620.50;4992293;28;20049;-36
2023/06/12 01:43:11;;;;;;;9.02;2.03;;;;;;;10.28;53.13;100619.63;5009182;28;20053;-36
2023/06/12 01:45:38;;;;;;;4.30;1.95;;;;;;;10.27;53.30;100625.69;5010730;28;20052;-37
2023/06/12 01:48:05;;;;;;;6.63;2.17;;;;;;;10.30;52.92;100630.88;5027080;28;20045;-35
2023/06/12 01:50:32;;;;;;;4.45;1.98;;;;;;;10.31;53.30;100630.00;5010671;28;20134;-36
2023/06/12 01:52:58;;;;;;;4.50;1.88;;;;;;;10.31;53.27;100635.19;5026541;28;20044;-36
2023/06/12 01:55:24;;;;;;;3.63;1.90;;;;;;;10.11;53.26;100596.50;5027028;28;20050;-36
2023/06/12 01:57:52;;;;;;;5.50;2.65;;;;;;;10.28;52.84;100623.09;5026929;28;20037;-35
2023/06/12 02:00:26;;;;;;;4.80;1.73;;;;;;;10.18;53.44;100604.22;5026354;28;20053;-36
2023/06/12 02:02:56;;;;;;;3.58;1.75;;;;;;;10.35;53.22;100629.91;4994338;28;20037;-35
2023/06/12 02:05:27;;;;;;;7.20;1.77;;;;;;;10.36;52.97;100635.97;5026250;28;20033;-35
2023/06/12 02:07:53;;;;;;;4.68;1.90;;;;;;;10.36;53.50;100634.22;5007090;28;20074;-35
2023/06/12 02:10:19;;;;;;;2.40;1.60;;;;;;;10.41;53.43;100644.53;5007303;28;20038;-35
2023/06/12 02:12:45;;;;;;;5.03;1.90;;;;;;;10.42;52.93;100635.81;4990865;28;20041;-35
2023/06/12 02:15:12;;;;;;;4.82;1.90;;;;;;;10.43;53.80;100635.81;5022393;28;20048;-35
2023/06/12 02:17:38;;;;;;;7.25;1.90;;;;;;;10.17;53.34;100591.22;5026200;28;20425;-35
2023/06/12 02:20:05;;;;;;;3.08;1.65;;;;;;;10.47;53.61;100640.06;4993829;28;20045;-35
2023/06/12 02:22:32;;;;;;;5.97;1.88;;;;;;;10.47;53.50;100634.84;4994481;28;20143;-35
2023/06/12 02:24:59;;;;;;;8.15;1.83;;;;;;;10.51;53.67;100640.88;5010396;28;20355;-36
2023/06/12 02:27:26;;;;;;;3.58;2.13;;;;;;;10.54;53.67;100638.19;5009974;28;20067;-35
2023/06/12 02:29:52;;;;;;;4.22;2.00;;;;;;;10.54;53.50;100635.59;5026927;28;20041;-35
2023/06/12 02:32:18;;;;;;;7.80;1.80;;;;;;;10.41;53.60;100610.72;5026944;28;20052;-36
2023/06/12 02:34:44;;;;;;;7.20;2.08;;;;;;;10.59;53.67;100642.44;5027768;28;20045;-36
2023/06/12 02:37:10;;;;;;;3.22;1.52;;;;;;;10.60;53.31;100635.47;5026669;28;20084;-35
2023/06/12 02:39:38;;;;;;;3.63;1.60;;;;;;;10.65;53.05;100635.41;5027953;28;20041;-35
2023/06/12 02:42:05;;;;;;;6.80;2.00;;;;;;;10.69;53.18;100644.84;5023716;28;20675;-35
2023/06/12 02:44:31;;;;;;;4.25;1.60;;;;;;;10.74;53.11;100636.06;5026019;28;20041;-35
2023/06/12 02:46:58;;;;;;;4.00;1.45;;;;;;;10.78;53.28;100637.72;5028831;28;20046;-35
2023/06/12 02:49:30;;;;;;;4.53;1.85;;;;;;;10.82;52.81;100636.78;5030457;28;20037;-35
2023/06/12 02:51:57;;;;;;;4.82;1.73;;;;;;;10.85;53.06;100641.06;5029728;28;20053;-36
2023/06/12 02:54:24;;;;;;;3.90;1.80;;;;;;;10.85;53.53;100635.84;5030017;28;20033;-35
2023/06/12 02:56:52;;;;;;;4.50;1.60;;;;;;;10.89;53.41;100640.09;5030296;28;20045;-35
2023/06/12 02:59:19;;;;;;;4.53;2.03;;;;;;;10.91;53.72;100647.00;5029724;28;20052;-35
2023/06/12 03:01:45;;;;;;;3.88;1.77;;;;;;;10.94;53.28;100646.91;5013613;28;20508;-36
2023/06/12 03:04:21;;;;;;;5.78;2.35;;;;;;;10.97;53.63;100641.69;5013271;28;20045;-35
2023/06/12 03:06:55;;;;;;;3.83;2.10;;;;;;;11.05;53.35;100639.75;5013689;28;20119;-36
2023/06/12 03:09:21;;;;;;;9.32;1.98;;;;;;;11.10;52.95;100638.78;5030031;28;20402;-35
2023/06/12 03:11:48;;;;;;;4.40;2.17;;;;;;;11.09;53.25;100627.56;5029997;28;20103;-36
2023/06/12 03:14:14;;;;;;;4.95;2.15;;;;;;;10.95;53.13;100609.63;5012881;28;20037;-35
2023/06/12 03:16:40;;;;;;;6.15;1.83;;;;;;;11.14;53.62;100641.31;5029888;28;20462;-36
2023/06/12 03:19:07;;;;;;;3.20;2.08;;;;;;;11.19;53.13;100636.03;5029748;28;20034;-36
2023/06/12 03:21:33;;;;;;;11.68;5.60;;;;;;;11.26;52.66;100646.25;5029852;28;20040;-36
2023/06/12 03:23:59;;;;;;;10.77;4.45;;;;;;;11.34;52.44;100652.16;5029264;28;20087;-35
2023/06/12 03:26:27;;;;;;;6.55;2.20;;;;;;;11.34;52.28;100644.34;5029825;28;20060;-35
2023/06/12 03:28:53;;;;;;;5.53;2.00;;;;;;;11.43;52.19;100640.69;5030414;28;20045;-37
2023/06/12 03:31:20;;;;;;;4.45;1.80;;;;;;;11.45;52.35;100639.75;5029719;28;20049;-35
2023/06/12 03:33:47;;;;;;;6.97;2.38;;;;;;;11.38;52.70;100616.50;5029629;28;20053;-36
2023/06/12 03:36:16;;;;;;;5.15;2.30;;;;;;;11.53;53.05;100643.91;5029043;28;20046;-36
2023/06/12 03:38:43;;;;;;;5.03;2.17;;;;;;;11.57;52.59;100650.75;5012754;28;20104;-35
2023/06/12 03:41:09;;;;;;;3.90;1.92;;;;;;;11.58;53.02;100645.53;5026696;28;20049;-35
2023/06/12 03:43:36;;;;;;;5.53;2.45;;;;;;;11.66;52.31;100654.03;4994380;28;20504;-37
2023/06/12 03:46:02;;;;;;;9.40;1.90;;;;;;;11.74;52.26;100652.13;5009649;28;20064;-35
2023/06/12 03:48:28;;;;;;;5.43;1.77;;;;;;;11.83;52.10;100651.91;5009365;28;20497;-37
2023/06/12 03:50:54;;;;;;;5.60;1.95;;;;;;;11.91;51.54;100656.94;5018146;28;20041;-35
2023/06/12 03:53:20;;;;;;;3.38;2.00;;;;;;;11.69;51.31;100608.81;5030587;28;20424;-36
2023/06/12 03:55:46;;;;;;;4.13;1.70;;;;;;;12.02;51.62;100659.28;5028648;28;20033;-36
2023/06/12 03:58:16;;;;;;;4.80;1.98;;;;;;;12.06;51.92;100659.19;5011625;28;20453;-36
2023/06/12 04:00:47;;;;;;;3.63;1.77;;;;;;;12.07;51.74;100650.47;5008311;28;20034;-35
2023/06/12 04:03:17;;;;;;;5.35;1.85;;;;;;;12.18;51.10;100653.66;5015647;28;20045;-35
2023/06/12 04:05:45;;;;;;;4.30;1.80;;;;;;;12.21;51.40;100658.78;4996570;28;20041;-36
2023/06/12 04:08:11;;;;;;;10.05;2.47;;;;;;;12.26;51.29;100654.31;5028252;28;20083;-36
2023/06/12 04:10:38;;;;;;;4.30;1.95;;;;;;;12.24;51.41;100645.69;5012157;28;20512;-35
2023/06/12 04:13:04;;;;;;;3.38;1.90;;;;;;;12.25;51.07;100636.09;5012047;28;20424;-37
2023/06/12 04:15:30;;;;;;;3.88;1.95;;;;;;;12.51;50.75;100664.13;5000432;28;20042;-36
2023/06/12 04:17:59;;;;;;;5.43;2.13;;;;;;;12.47;49.73;100639.84;5008954;28;20529;-36
2023/06/12 04:20:29;;;;;;;6.00;1.50;;;;;;;12.40;49.70;100609.63;5008911;28;20049;-35
2023/06/12 04:22:56;;;;;;;3.20;1.58;;;;;;;12.57;49.11;100627.41;5008938;28;20048;-35
2023/06/12 04:25:26;;;;;;;5.20;2.40;;;;;;;12.85;48.88;100664.03;5019176;28;20532;-36
2023/06/12 04:27:52;;;;;;;5.10;1.60;;;;;;;12.81;48.61;100637.19;5028703;28;20052;-36
2023/06/12 04:30:21;;;;;;;3.85;1.50;;;;;;;13.00;48.94;100659.25;5027846;28;20053;-38
2023/06/12 04:32:48;;;;;;;3.88;1.80;;;;;;;13.10;48.59;100660.69;5028339;28;20037;-35
2023/06/12 04:35:19;;;;;;;7.18;2.60;;;;;;;13.03;48.43;100632.22;5028048;28;20037;-36
2023/06/12 04:37:48;;;;;;;4.57;2.40;;;;;;;13.24;48.35;100659.47;5026837;28;20052;-35
2023/06/12 04:40:15;;;;;;;11.07;2.75;;;;;;;13.32;48.32;100660.94;5010749;28;20108;-35
2023/06/12 04:42:43;;;;;;;8.63;2.55;;;;;;;13.23;48.36;100637.72;5022987;28;20115;-35
2023/06/12 04:45:12;;;;;;;4.90;2.80;;;;;;;13.47;47.84;100657.88;5009614;28;20092;-35
2023/06/12 04:47:40;;;;;;;6.03;3.00;;;;;;;13.62;47.48;100660.91;5009586;28;20041;-36
2023/06/12 04:50:09;;;;;;;9.20;3.15;;;;;;;13.71;46.95;100650.19;5009921;28;20037;-35
2023/06/12 04:52:36;;;;;;;5.55;2.42;;;;;;;13.78;46.75;100647.31;5028745;28;20037;-36
2023/06/12 04:55:08;;;;;;;9.63;3.13;;;;;;;13.87;47.19;100654.03;5009979;28;20187;-35
2023/06/12 04:57:36;;;;;;;6.28;3.40;;;;;;;13.94;47.00;100647.66;5027558;28;20045;-36
2023/06/12 05:00:05;;;;;;;;;;;;;;;14.06;46.53;100651.66;5027535;28;20047;-37
2023/06/12 05:02:33;;;;;;;5.20;3.13;;;;;;;14.14;46.07;100644.38;5024301;28;20416;-36
2023/06/12 05:05:00;;;;;;;4.93;2.70;;;;;;;14.06;45.99;100613.28;5024990;28;20041;-36
2023/06/12 05:07:27;;;;;;;3.40;2.33;;;;;;;14.32;45.59;100641.16;5027079;28;20029;-35
2023/06/12 05:09:58;;;;;;;4.05;2.15;;;;;;;14.21;45.00;100604.03;4992629;28;20144;-38
2023/06/12 05:12:24;;;;;;;3.85;2.05;;;;;;;14.54;44.19;100644.78;5027029;28;20133;-36
2023/06/12 05:14:49;;;;;;;7.35;2.30;;;;;;;14.63;43.84;100648.81;5010662;28;20102;-38
2023/06/12 05:17:15;;;;;;;5.32;1.90;;;;;;;14.59;43.50;100614.06;5026542;28;20041;-35
2023/06/12 05:19:41;;;;;;;9.10;2.65;;;;;;;14.81;43.45;100637.72;5029859;28;20120;-35
2023/06/12 05:22:07;;;;;;;1.77;1.30;;;;;;;14.96;43.23;100633.66;5010673;28;20045;-37
2023/06/12 05:24:35;;;;;;;4.63;1.60;;;;;;;14.91;42.85;100620.75;5010884;28;20067;-35
2023/06/12 05:27:01;;;;;;;3.33;1.30;;;;;;;15.15;42.52;100646.00;4993164;28;20045;-37
2023/06/12 05:29:27;;;;;;;3.33;1.25;;;;;;;15.10;42.52;100613.91;4985732;28;20081;-35
2023/06/12 05:31:53;;;;;;;4.78;1.88;;;;;;;15.39;42.51;100638.97;5026664;28;20064;-36
2023/06/12 05:34:19;;;;;;;5.80;2.83;;;;;;;15.53;42.65;100644.56;5007687;28;20041;-36
2023/06/12 05:36:45;;;;;;;4.88;1.30;;;;;;;15.67;42.19;100630.91;5035458;28;20534;-36
2023/06/12 05:39:11;;;;;;;2.58;1.52;;;;;;;15.70;41.53;100616.84;5035474;28;20513;-36
2023/06/12 05:41:37;;;;;;;5.72;2.38;;;;;;;15.90;40.93;100638.72;5037824;28;20052;-36
2023/06/12 05:44:08;;;;;;;3.15;1.52;;;;;;;16.02;40.43;100627.69;4975020;28;20518;-36
2023/06/12 05:46:34;;;;;;;9.30;1.15;;;;;;;16.16;39.94;100634.16;5020127;28;20094;-36
2023/06/12 05:49:00;;;;;;;1.88;1.23;;;;;;;16.23;39.46;100623.31;5010356;28;20069;-35
2023/06/12 05:51:30;;;;;;;4.90;1.15;;;;;;;16.12;38.88;100595.84;5026618;28;20037;-37
2023/06/12 05:53:55;;;;;;;4.50;1.35;;;;;;;16.42;38.61;100626.00;5027285;28;20497;-36
2023/06/12 05:56:23;;;;;;;7.22;1.10;;;;;;;16.33;38.19;100593.13;5008458;28;20033;-35
2023/06/12 05:58:49;;;;;;;1.95;1.27;;;;;;;16.53;37.93;100614.13;5008598;28;20048;-36
2023/06/12 06:01:21;;;;;;;4.05;1.45;;;;;;;16.64;37.61;100611.06;5043158;28;20045;-35
2023/06/12 06:03:55;;;;;;;6.32;1.50;;;;;;;16.74;37.89;100615.00;5026127;28;20163;-36
2023/06/12 06:06:22;;;;;;;3.10;1.00;;;;;;;16.89;37.44;100608.19;5008488;28;20137;-35
2023/06/12 06:08:49;;;;;;;1.08;0.90;;;;;;;17.03;37.20;100611.03;5028355;28;20172;-35
2023/06/12 06:11:15;;;;;;;4.30;1.30;;;;;;;17.07;36.95;100598.59;5020561;28;20096;-35
2023/06/12 06:13:43;;;;;;;4.75;1.27;;;;;;;17.16;36.66;100592.94;5009535;28;20075;-36
2023/06/12 06:16:10;;;;;;;;;;;;;;;17.42;36.87;100604.84;4988774;28;20603;-36
2023/06/12 06:18:39;;;;;;;5.63;1.30;;;;;;;17.54;36.58;100604.22;5020217;28;19921;-38
2023/06/12 06:21:05;;;;;;;2.55;0.82;;;;;;;17.64;35.61;100601.09;5021600;28;20049;-38
2023/06/12 06:23:32;;;;;;;2.38;0.90;;;;;;;17.78;35.68;100606.56;5013714;28;20398;-37
2023/06/12 06:25:59;;;;;;;2.70;1.50;;;;;;;17.91;35.22;100603.31;5045306;28;20041;-36
2023/06/12 06:28:26;;;;;;;3.65;1.13;;;;;;;18.08;34.67;100598.06;5026778;28;20034;-36
2023/06/12 06:30:52;;;;;;;2.90;0.82;;;;;;;18.29;34.68;100602.22;5013372;28;20047;-36
2023/06/12 06:33:18;;;;;;;5.45;1.17;;;;;;;18.48;34.79;100594.22;5024963;28;20089;-36
2023/06/12 06:35:44;;;;;;;6.07;1.60;;;;;;;18.66;34.73;100595.94;5030209;28;20240;-36
2023/06/12 06:38:10;;;;;;;1.90;0.90;;;;;;;19.01;34.41;100591.38;5023371;28;20129;-36
2023/06/12 06:40:36;;;;;;;2.72;1.92;;;;;;;19.59;33.62;100601.34;5029773;28;20424;-36
2023/06/12 06:43:02;;;;;;;5.20;1.00;;;;;;;20.27;32.10;100571.78;5036209;28;20071;-36
2023/06/12 06:45:42;;;;;;;2.60;1.00;;;;;;;21.33;30.48;100566.09;4984902;28;20095;-37
2023/06/12 06:48:09;;;;;;;12.38;2.42;;;;;;;22.21;28.87;100566.34;5015457;28;20046;-36
2023/06/12 06:50:35;;;;;;;4.30;1.20;;;;;;;23.05;27.37;100582.53;5001520;28;20549;-36
2023/06/12 06:53:02;;;;;;;4.97;1.30;;;;;;;24.05;26.92;100592.84;5008783;28;20048;-36
2023/06/12 06:55:29;;;;;;;2.03;0.98;;;;;;;24.95;25.90;100589.38;5010761;28;20033;-37
2023/06/12 06:57:57;;;;;;;8.02;2.80;;;;;;;25.81;24.76;100568.09;5004327;28;20211;-37
2023/06/12 07:00:23;;;;;;;2.33;0.98;;;;;;;26.78;23.46;100588.22;5019596;28;20044;-36
2023/06/12 07:02:49;;;;;;;4.93;1.15;;;;;;;27.58;22.65;100590.91;5010202;28;20041;-37
2023/06/12 07:05:18;;;;;;;1.05;0.93;;;;;;;28.34;21.87;100575.78;5018431;28;20069;-36
2023/06/12 07:07:47;;;;;;;9.65;1.45;;;;;;;28.88;21.00;100575.06;5028639;28;20033;-37
2023/06/12 07:10:13;;;;;;;5.13;1.08;;;;;;;29.14;20.31;100592.13;5010495;28;20065;-37
2023/06/12 07:12:39;;;;;;;7.20;1.92;;;;;;;29.80;19.64;100586.47;5017100;28;20592;-36
2023/06/12 07:15:06;;;;;;;2.30;1.25;;;;;;;30.67;18.96;100571.19;5014685;28;20482;-36
2023/06/12 07:17:32;;;;;;;11.15;1.50;;;;;;;31.29;18.39;100584.41;5023255;28;20045;-39
2023/06/12 07:19:58;;;;;;;3.80;1.30;;;;;;;31.76;17.68;100564.00;5024006;28;20049;-36
2023/06/12 07:22:27;;;;;;;2.85;1.73;;;;;;;32.17;17.14;100551.41;5026490;28;20056;-36
2023/06/12 07:24:53;;;;;;;4.03;1.42;;;;;;;32.73;16.93;100577.34;5023546;28;20068;-36
2023/06/12 07:27:18;;;;;;;5.63;1.33;;;;;;;33.28;16.04;100589.09;5024578;28;20077;-37
2023/06/12 07:29:45;;;;;;;4.25;1.30;;;;;;;33.66;15.70;100588.16;5028860;28;20458;-37
2023/06/12 07:32:10;;;;;;;4.38;1.10;;;;;;;34.03;15.44;100582.81;5009865;28;20490;-37
2023/06/12 07:34:37;;;;;;;3.15;1.30;;;;;;;34.33;15.49;100555.94;5024945;28;20045;-36
2023/06/12 07:37:04;;;;;;;4.13;1.75;;;;;;;34.81;14.87;100571.56;5025467;28;20429;-37
2023/06/12 07:39:30;;;;;;;2.58;1.60;;;;;;;34.97;14.94;100580.50;5027419;28;20045;-38
2023/06/12 07:41:59;;;;;;;4.85;1.40;;;;;;;35.10;14.36;100589.63;5009168;28;20050;-39
2023/06/12 07:44:25;;;;;;;2.90;1.27;;;;;;;35.37;14.16;100554.81;5009373;28;20038;-37
2023/06/12 07:46:52;;;;;;;4.85;1.20;;;;;;;35.77;14.03;100561.47;5017697;28;20048;-38
2023/06/12 07:49:18;;;;;;;2.30;1.15;;;;;;;36.15;13.92;100568.28;5040735;28;20037;-37
2023/06/12 07:51:45;;;;;;;5.35;1.50;;;;;;;36.30;13.70;100576.28;5035543;28;20563;-38
2023/06/12 07:54:12;;;;;;;3.88;1.35;;;;;;;36.33;13.48;100574.03;5023934;28;20502;-37
2023/06/12 07:56:39;;;;;;;5.43;1.60;;;;;;;36.42;13.03;100572.00;5019944;28;20088;-40
2023/06/12 07:59:06;;;;;;;3.30;1.27;;;;;;;36.53;13.35;100572.28;5022462;28;20034;-36
2023/06/12 08:01:34;;;;;;;3.88;1.40;;;;;;;36.91;13.24;100569.16;5021689;28;20045;-37
2023/06/12 08:04:03;;;;;;;2.95;1.40;;;;;;;37.27;13.20;100552.63;5020214;28;20052;-38
2023/06/12 08:06:33;;;;;;;7.43;1.55;;;;;;;37.78;12.81;100571.13;5029565;28;20532;-37
2023/06/12 08:09:00;;;;;;;4.57;1.40;;;;;;;37.91;12.40;100568.38;5008881;28;20505;-36
2023/06/12 08:11:26;;;;;;;3.33;1.30;;;;;;;38.15;12.28;100567.81;5007223;28;20049;-37
2023/06/12 08:13:53;;;;;;;3.80;1.40;;;;;;;38.34;12.36;100564.22;5009441;28;20044;-37
2023/06/12 08:16:22;;;;;;;6.35;1.67;;;;;;;38.51;12.03;100568.19;5021142;28;20587;-36
2023/06/12 08:18:49;;;;;;;2.63;1.33;;;;;;;38.79;12.09;100564.31;5024438;28;20064;-37
2023/06/12 08:21:18;;;;;;;1.77;1.55;;;;;;;39.10;12.51;100569.84;5023062;28;20128;-37
2023/06/12 08:23:44;;;;;;;4.43;1.70;;;;;;;39.31;11.63;100564.09;5010848;28;20574;-37
2023/06/12 08:26:10;;;;;;;7.05;1.98;;;;;;;39.39;11.63;100563.88;5012728;28;20535;-37
2023/06/12 08:28:37;;;;;;;4.60;1.77;;;;;;;39.29;11.35;100570.81;5024884;28;20516;-37
2023/06/12 08:31:08;;;;;;;7.30;2.10;;;;;;;39.41;11.38;100568.28;5042652;28;20049;-37
2023/06/12 08:33:34;;;;;;;2.90;1.52;;;;;;;39.30;11.23;100559.72;5015948;28;20057;-37
2023/06/12 08:36:01;;;;;;;4.18;2.78;;;;;;;39.55;11.25;100556.22;5023927;28;20077;-38
2023/06/12 08:38:27;;;;;;;3.05;1.65;;;;;;;39.32;11.03;100573.09;5024866;28;20048;-36
2023/06/12 08:40:54;;;;;;;6.60;1.58;;;;;;;38.93;11.47;100565.97;5018209;28;20119;-37
2023/06/12 08:43:20;;;;;;;4.25;1.50;;;;;;;39.26;11.31;100563.06;5025025;28;20072;-39
2023/06/12 08:45:50;;;;;;;4.30;1.70;;;;;;;39.55;11.16;100557.06;5022852;28;20125;-38
2023/06/12 08:48:17;;;;;;;5.97;1.70;;;;;;;39.70;11.14;100552.13;5023963;28;20037;-37
2023/06/12 08:50:44;;;;;;;3.15;2.28;;;;;;;39.47;11.15;100515.63;5006953;28;20083;-36
2023/06/12 08:53:12;;;;;;;4.93;1.80;;;;;;;39.62;11.14;100548.84;5006123;28;20501;-39
2023/06/12 08:55:41;;;;;;;3.10;1.80;;;;;;;39.72;11.09;100546.47;5015520;28;20402;-37
2023/06/12 08:58:09;;;;;;;7.78;2.38;;;;;;;40.05;11.01;100547.03;5006854;28;20037;-39
2023/06/12 09:00:35;;;;;;;;;;;;;;;40.40;10.94;100551.97;5009152;28;20524;-38
2023/06/12 09:03:04;;;;;;;4.63;1.92;;;;;;;40.32;10.67;100525.81;5006563;28;19921;-40
2023/06/12 09:05:39;;;;;;;4.25;1.90;;;;;;;40.15;10.61;100546.50;5022742;28;20038;-39
2023/06/12 09:08:05;;;;;;;2.05;1.75;;;;;;;40.26;10.31;100542.25;5024611;28;20033;-38
2023/06/12 09:10:32;;;;;;;3.80;1.90;;;;;;;40.36;10.60;100520.75;5027626;28;20042;-38
2023/06/12 09:12:59;;;;;;;2.92;1.50;;;;;;;40.00;10.51;100530.50;5022692;28;20104;-37
2023/06/12 09:15:26;;;;;;;2.70;1.60;;;;;;;40.21;10.83;100529.28;5027031;28;20698;-37
2023/06/12 09:17:53;;;;;;;1.70;1.60;;;;;;;40.12;10.86;100541.53;5027809;28;20377;-37
2023/06/12 09:20:27;;;;;;;1.85;1.70;;;;;;;39.85;10.63;100515.56;5026379;28;20092;-38
2023/06/12 09:22:54;;;;;;;4.57;2.10;;;;;;;40.07;10.37;100523.13;5023955;28;20046;-37
2023/06/12 09:25:21;;;;;;;5.35;2.22;;;;;;;40.38;10.14;100529.53;5020945;28;20116;-38
2023/06/12 09:27:47;;;;;;;6.22;1.90;;;;;;;40.57;10.07;100518.41;5019857;28;20086;-38
2023/06/12 09:30:14;;;;;;;5.28;1.80;;;;;;;40.63;10.26;100494.88;5023861;28;20228;-39
2023/06/12 09:32:43;;;;;;;2.90;1.83;;;;;;;40.86;10.22;100526.88;5005091;28;20107;-38
2023/06/12 09:35:12;;;;;;;8.02;1.80;;;;;;;40.80;9.92;100504.09;5030942;28;20041;-38
2023/06/12 09:37:40;;;;;;;5.88;2.08;;;;;;;40.97;10.15;100513.31;5020311;28;20125;-40
2023/06/12 09:40:12;;;;;;;5.88;2.17;;;;;;;41.19;9.97;100519.13;5039390;28;20061;-38
2023/06/12 09:42:38;;;;;;;2.20;1.95;;;;;;;41.06;9.78;100518.47;5025907;28;20136;-38
2023/06/12 09:45:15;;;;;;;3.30;1.88;;;;;;;40.98;9.89;100509.50;5023589;28;20045;-40
2023/06/12 09:47:42;;;;;;;3.13;2.00;;;;;;;41.12;9.63;100515.63;5032214;28;20187;-38
2023/06/12 09:50:08;;;;;;;2.45;2.15;;;;;;;41.38;9.83;100519.88;5042239;28;20131;-38
2023/06/12 09:52:35;;;;;;;4.23;2.33;;;;;;;41.04;10.14;100481.31;5028395;28;20038;-39
2023/06/12 09:55:03;;;;;;;4.53;2.28;;;;;;;41.01;10.05;100497.28;5026501;28;20223;-38
2023/06/12 09:57:31;;;;;;;3.75;2.00;;;;;;;41.05;10.14;100487.59;5026029;28;20064;-39
2023/06/12 10:00:02;;;;;;;2.80;2.20;;;;;;;40.68;10.02;100475.06;5028017;28;20041;-38
2023/06/12 10:02:41;;;;;;;4.93;2.08;;;;;;;40.96;10.37;100495.25;5020222;28;20125;-39
2023/06/12 10:05:17;;;;;;;3.42;2.10;;;;;;;40.69;10.45;100493.94;5009810;28;20732;-38
2023/06/12 10:07:47;;;;;;;3.67;2.00;;;;;;;40.95;9.85;100499.06;5028761;28;20076;-38
2023/06/12 10:10:15;;;;;;;3.53;1.80;;;;;;;40.94;9.89;100441.97;4993701;28;20073;-39
2023/06/12 10:12:42;;;;;;;2.08;1.75;;;;;;;41.18;10.00;100464.75;5026294;28;20037;-39
2023/06/12 10:15:08;;;;;;;5.47;2.20;;;;;;;40.65;10.00;100486.47;5026133;28;20057;-43
2023/06/12 10:17:35;;;;;;;6.80;2.08;;;;;;;40.73;10.28;100481.50;5027037;28;20069;-38
2023/06/12 10:20:03;;;;;;;5.82;2.00;;;;;;;40.84;9.88;100479.91;5027334;28;20043;-39
2023/06/12 10:22:29;;;;;;;4.18;2.05;;;;;;;40.77;9.92;100471.00;5017741;28;20417;-38
2023/06/12 10:24:58;;;;;;;3.97;1.80;;;;;;;40.74;10.00;100453.19;5024363;28;20061;-39
2023/06/12 10:27:25;;;;;;;6.40;2.30;;;;;;;41.19;9.87;100466.41;5027902;28;20115;-38
2023/06/12 10:29:56;;;;;;;6.50;2.50;;;;;;;41.16;10.25;100445.03;5026499;28;20083;-39
2023/06/12 10:32:23;;;;;;;2.33;2.10;;;;;;;41.10;10.14;100470.53;5009463;28;20087;-38
2023/06/12 10:34:53;;;;;;;2.92;2.10;;;;;;;40.96;10.02;100467.16;5025064;28;20099;-39
2023/06/12 10:37:28;;;;;;;5.35;1.90;;;;;;;41.00;9.87;100454.69;5014455;28;20501;-38
2023/06/12 10:40:15;;;;;;;3.25;1.83;;;;;;;41.20;10.04;100459.88;5017220;28;20045;-38
2023/06/12 10:42:44;;;;;;;5.15;2.53;;;;;;;41.48;9.66;100461.97;5002428;28;20531;-37
2023/06/12 10:45:18;;;;;;;2.20;2.00;;;;;;;41.51;10.00;100458.78;5019655;28;20049;-37
2023/06/12 10:48:02;;;;;;;4.38;2.10;;;;;;;41.57;9.54;100461.38;5024582;28;20240;-37
2023/06/12 10:50:28;;;;;;;3.47;1.88;;;;;;;41.57;9.61;100436.81;5024017;28;20072;-37
2023/06/12 10:52:55;;;;;;;2.60;2.03;;;;;;;41.56;9.88;100445.25;5024742;28;20527;-37
2023/06/12 10:55:27;;;;;;;7.07;2.00;;;;;;;41.51;10.00;100443.22;5036422;28;20547;-37
2023/06/12 10:57:57;;;;;;;3.35;2.03;;;;;;;41.63;9.46;100435.88;5020812;28;20042;-37
2023/06/12 11:00:29;;;;;;;4.65;2.58;;;;;;;41.76;9.73;100434.81;5022251;28;20621;-37
2023/06/12 11:03:05;;;;;;;6.15;2.35;;;;;;;41.63;9.88;100445.97;5019653;28;20068;-39
2023/06/12 11:05:32;;;;;;;3.75;2.20;;;;;;;41.59;9.65;100426.50;5025416;28;20045;-37
2023/06/12 11:08:06;;;;;;;3.88;2.17;;;;;;;41.79;9.95;100447.97;5023323;28;20084;-36
2023/06/12 11:10:33;;;;;;;2.30;2.10;;;;;;;41.60;9.91;100439.09;5021156;28;20041;-38
2023/06/12 11:13:00;;;;;;;2.20;1.98;;;;;;;41.54;10.01;100422.81;5029446;28;20049;-37
2023/06/12 11:15:26;;;;;;;2.40;2.03;;;;;;;41.73;9.65;100435.25;5030686;28;20084;-37
2023/06/12 11:17:52;;;;;;;5.18;2.30;;;;;;;41.82;9.72;100428.38;5031576;28;20041;-37
2023/06/12 11:20:20;;;;;;;6.70;2.22;;;;;;;41.91;9.98;100439.81;5029846;28;20041;-39
2023/06/12 11:22:47;;;;;;;6.18;2.40;;;;;;;41.92;9.74;100441.47;4996922;28;20045;-38
2023/06/12 11:25:13;;;;;;;3.50;2.47;;;;;;;41.73;9.28;100427.06;5031240;28;20570;-37
2023/06/12 11:27:39;;;;;;;10.77;2.45;;;;;;;41.75;9.35;100442.16;5029834;28;20296;-37
2023/06/12 11:30:10;;;;;;;4.93;2.22;;;;;;;41.52;9.61;100393.00;5029868;28;20540;-37